Time;durP1;ratioP1;P1;durP2;ratioP2;P2;SDS_P1;SDS_P2;PMS_P1;PMS_P2;Temp;Humidity;BMP_temperature;BMP_pressure;BME280_temperature;BME280_humidity;BME280_pressure;Samples;Min_cycle;Max_cycle;Signal;HPM_P1;HPM_P2
2022/05/10 00:00:08;;;;;;;19.67;11.45;;;14.50;99.90;;;;;;5013370;28;20038;-67
2022/05/10 00:02:34;;;;;;;19.42;10.38;;;14.50;99.90;;;;;;5014356;28;20060;-64
2022/05/10 00:05:00;;;;;;;16.50;10.23;;;14.50;99.90;;;;;;5014566;28;20121;-64
2022/05/10 00:07:29;;;;;;;20.88;12.07;;;14.50;99.90;;;;;;5017051;28;20084;-65
2022/05/10 00:09:54;;;;;;;22.92;11.18;;;14.50;99.90;;;;;;5017818;28;20060;-64
2022/05/10 00:12:20;;;;;;;20.00;9.85;;;14.60;99.90;;;;;;5023792;28;20041;-64
2022/05/10 00:14:45;;;;;;;23.05;10.98;;;14.50;99.90;;;;;;5033593;28;20049;-64
2022/05/10 00:17:24;;;;;;;18.83;11.30;;;14.50;99.90;;;;;;5037723;28;20037;-64
2022/05/10 00:19:50;;;;;;;17.52;10.50;;;14.60;99.90;;;;;;5034908;28;20144;-64
2022/05/10 00:22:15;;;;;;;22.08;11.27;;;14.60;99.90;;;;;;5032273;28;20105;-67
2022/05/10 00:24:41;;;;;;;20.60;11.77;;;14.60;99.90;;;;;;5025160;28;20046;-67
2022/05/10 00:27:06;;;;;;;16.23;11.07;;;14.50;99.90;;;;;;5037190;28;20041;-67
2022/05/10 00:29:32;;;;;;;19.08;11.40;;;14.50;99.90;;;;;;5037042;28;20060;-67
2022/05/10 00:31:57;;;;;;;19.42;11.52;;;14.50;99.90;;;;;;5035284;28;20094;-66
2022/05/10 00:34:28;;;;;;;16.73;11.30;;;14.50;99.90;;;;;;5037154;28;20045;-67
2022/05/10 00:36:54;;;;;;;18.90;12.13;;;14.50;99.90;;;;;;5037306;28;20427;-67
2022/05/10 00:39:19;;;;;;;18.48;11.48;;;14.50;99.90;;;;;;5037035;28;20175;-67
2022/05/10 00:42:00;;;;;;;21.67;12.05;;;14.40;99.90;;;;;;5019526;28;20120;-67
2022/05/10 00:44:36;;;;;;;17.83;12.20;;;14.40;99.90;;;;;;5015339;28;20057;-67
2022/05/10 00:47:18;;;;;;;21.00;11.82;;;14.40;99.90;;;;;;5037071;28;20053;-67
2022/05/10 00:50:01;;;;;;;18.35;12.63;;;14.40;99.90;;;;;;5036581;28;20057;-67
2022/05/10 00:52:38;;;;;;;21.00;12.50;;;14.30;99.90;;;;;;5030954;28;20451;-66
2022/05/10 00:55:15;;;;;;;18.23;12.45;;;14.30;99.90;;;;;;5017419;28;20049;-66
2022/05/10 00:57:46;;;;;;;23.63;12.57;;;14.30;99.90;;;;;;5016963;28;20447;-66
2022/05/10 01:00:19;;;;;;;25.02;11.35;;;14.30;99.90;;;;;;5017369;28;20065;-66
2022/05/10 01:03:16;;;;;;;25.90;13.23;;;14.30;99.90;;;;;;5015927;28;20073;-67
2022/05/10 01:05:58;;;;;;;24.77;13.88;;;14.30;99.90;;;;;;5016998;28;20049;-67
2022/05/10 01:08:28;;;;;;;19.35;13.45;;;14.30;99.90;;;;;;5016969;28;20050;-66
2022/05/10 01:11:18;;;;;;;26.00;14.27;;;14.30;99.90;;;;;;5016996;28;20129;-67
2022/05/10 01:14:08;;;;;;;20.33;13.10;;;14.20;99.90;;;;;;5015891;28;20416;-67
2022/05/10 01:16:34;;;;;;;23.95;13.55;;;14.20;99.90;;;;;;5015871;28;20476;-66
2022/05/10 01:19:00;;;;;;;20.88;13.75;;;14.20;99.90;;;;;;5016238;28;20050;-66
2022/05/10 01:21:28;;;;;;;22.20;12.68;;;14.20;99.90;;;;;;5016572;28;20462;-67
2022/05/10 01:24:26;;;;;;;21.55;13.82;;;14.20;99.90;;;;;;5015644;28;20065;-66
2022/05/10 01:27:16;;;;;;;24.35;14.00;;;14.20;99.90;;;;;;5016444;28;20387;-67
2022/05/10 01:29:48;;;;;;;22.65;13.38;;;14.20;99.90;;;;;;5016271;28;20045;-67
2022/05/10 01:35:14;;;;;;;25.30;13.93;;;14.10;99.90;;;;;;5016380;28;20049;-67
2022/05/10 01:37:45;;;;;;;22.50;13.80;;;14.10;99.90;;;;;;5016270;28;20046;-67
2022/05/10 01:40:20;;;;;;;27.50;14.40;;;14.10;99.90;;;;;;5015237;28;20038;-67
2022/05/10 01:42:55;;;;;;;22.80;14.02;;;14.10;99.90;;;;;;5016279;28;20038;-67
2022/05/10 01:45:36;;;;;;;21.80;14.75;;;14.10;99.90;;;;;;5016050;28;20419;-67
2022/05/10 01:48:04;;;;;;;20.27;13.57;;;14.10;99.90;;;;;;5016202;28;20050;-66
2022/05/10 01:50:29;;;;;;;22.35;13.98;;;14.10;99.90;;;;;;5006772;28;20484;-67
2022/05/10 01:53:11;;;;;;;19.20;13.65;;;14.00;99.90;;;;;;4996132;28;20057;-67
2022/05/10 01:55:39;;;;;;;26.13;15.13;;;14.10;99.90;;;;;;4996228;28;20105;-67
2022/05/10 01:58:15;;;;;;;27.05;16.05;;;14.00;99.90;;;;;;4996482;28;20101;-67
2022/05/10 02:00:45;;;;;;;22.40;14.55;;;14.00;99.90;;;;;;5019892;28;20042;-67
2022/05/10 02:03:42;;;;;;;20.48;13.73;;;14.00;99.90;;;;;;5035518;28;20431;-67
2022/05/10 02:06:11;;;;;;;20.77;13.60;;;14.00;99.90;;;;;;5000651;28;20057;-67
2022/05/10 02:08:49;;;;;;;24.45;15.13;;;14.00;99.90;;;;;;5035695;28;20041;-67
2022/05/10 02:11:17;;;;;;;22.00;15.48;;;14.00;99.90;;;;;;5017680;28;20100;-67
2022/05/10 02:14:03;;;;;;;21.45;14.23;;;14.00;99.90;;;;;;5015590;28;20050;-66
2022/05/10 02:16:55;;;;;;;23.73;14.35;;;14.00;99.90;;;;;;5015544;28;20041;-66
2022/05/10 02:19:39;;;;;;;21.42;14.75;;;13.90;99.90;;;;;;5014835;28;20041;-67
2022/05/10 02:22:16;;;;;;;24.27;14.48;;;13.90;99.90;;;;;;5015175;28;20129;-67
2022/05/10 02:24:53;;;;;;;21.92;13.48;;;13.90;99.90;;;;;;4998487;28;20050;-67
2022/05/10 02:27:36;;;;;;;24.40;15.57;;;14.00;99.90;;;;;;5015325;28;20045;-66
2022/05/10 02:30:08;;;;;;;24.65;15.15;;;14.00;99.90;;;;;;5018387;28;20041;-67
2022/05/10 02:35:23;;;;;;;28.23;15.60;;;14.00;99.90;;;;;;5034925;28;20061;-64
2022/05/10 02:37:49;;;;;;;21.15;14.38;;;14.00;99.90;;;;;;5034958;28;20115;-64
2022/05/10 02:40:15;;;;;;;20.50;14.68;;;14.00;99.90;;;;;;5033083;28;20045;-64
2022/05/10 02:42:44;;;;;;;21.27;14.57;;;14.00;99.90;;;;;;5034930;28;20344;-64
2022/05/10 02:45:09;;;;;;;22.48;15.27;;;14.00;99.90;;;;;;5034758;28;20124;-64
2022/05/10 02:47:37;;;;;;;20.17;15.55;;;14.00;99.90;;;;;;5034892;28;20041;-64
2022/05/10 02:50:06;;;;;;;19.95;14.27;;;14.00;99.90;;;;;;5027803;28;20064;-64
2022/05/10 02:52:32;;;;;;;24.85;15.32;;;14.00;99.90;;;;;;5029741;28;20053;-64
2022/05/10 02:55:04;;;;;;;27.65;15.50;;;14.00;99.90;;;;;;5031446;28;20037;-64
2022/05/10 02:57:30;;;;;;;20.20;15.02;;;14.10;99.90;;;;;;5034480;28;20379;-63
2022/05/10 03:00:00;;;;;;;26.10;14.15;;;14.10;99.90;;;;;;5028957;28;20046;-64
2022/05/10 03:02:34;;;;;;;21.63;15.35;;;14.10;99.90;;;;;;5015126;28;20081;-64
2022/05/10 03:05:00;;;;;;;21.63;14.30;;;14.10;99.90;;;;;;5015127;28;20046;-64
2022/05/10 03:07:27;;;;;;;19.50;15.23;;;14.10;99.90;;;;;;5015064;28;20095;-64
2022/05/10 03:09:53;;;;;;;21.40;14.80;;;14.10;99.90;;;;;;5013854;28;20043;-65
2022/05/10 03:12:19;;;;;;;20.23;14.43;;;14.10;99.90;;;;;;5014519;28;20744;-64
2022/05/10 03:14:44;;;;;;;25.10;15.45;;;14.10;99.90;;;;;;4996422;28;20081;-64
2022/05/10 03:17:13;;;;;;;21.17;15.23;;;14.10;99.90;;;;;;4995396;28;20082;-64
2022/05/10 03:19:40;;;;;;;27.08;16.02;;;14.10;99.90;;;;;;4997005;28;20060;-64
2022/05/10 03:22:07;;;;;;;17.88;14.20;;;14.10;99.90;;;;;;5014901;28;20057;-64
2022/05/10 03:24:33;;;;;;;22.02;14.50;;;14.10;99.90;;;;;;5014327;28;20037;-65
2022/05/10 03:27:00;;;;;;;24.05;14.23;;;14.20;99.90;;;;;;5014685;28;20092;-64
2022/05/10 03:29:26;;;;;;;21.63;14.80;;;14.10;99.90;;;;;;4997189;28;20419;-64
2022/05/10 03:31:55;;;;;;;21.42;14.85;;;14.20;99.90;;;;;;5034386;28;20053;-64
2022/05/10 03:37:05;;;;;;;21.73;14.57;;;14.20;99.90;;;;;;5034112;28;20053;-64
2022/05/10 03:39:31;;;;;;;21.98;15.02;;;14.20;99.90;;;;;;5032628;28;20284;-64
2022/05/10 03:41:56;;;;;;;22.20;15.07;;;14.20;99.90;;;;;;5037165;28;20414;-64
2022/05/10 03:44:22;;;;;;;21.13;15.23;;;14.20;99.90;;;;;;5020719;28;20135;-64
2022/05/10 03:46:48;;;;;;;20.70;14.20;;;14.20;99.90;;;;;;5020924;28;20402;-64
2022/05/10 03:49:14;;;;;;;20.08;14.20;;;14.20;99.90;;;;;;5037944;28;20136;-64
2022/05/10 03:51:40;;;;;;;22.60;14.35;;;14.20;99.90;;;;;;5018999;28;20096;-64
2022/05/10 03:54:05;;;;;;;20.70;15.88;;;14.20;99.90;;;;;;5018094;28;20073;-64
2022/05/10 03:56:33;;;;;;;19.05;14.63;;;14.20;99.90;;;;;;5018503;28;20060;-64
2022/05/10 03:58:59;;;;;;;34.00;16.02;;;14.20;99.90;;;;;;5035966;28;20056;-64
2022/05/10 04:01:25;;;;;;;23.02;14.82;;;14.20;99.90;;;;;;5037910;28;20041;-64
2022/05/10 04:03:51;;;;;;;21.48;14.70;;;14.20;99.90;;;;;;5037701;28;20046;-64
2022/05/10 04:06:17;;;;;;;20.98;14.65;;;14.20;99.90;;;;;;5020175;28;20099;-64
2022/05/10 04:08:43;;;;;;;24.40;14.55;;;14.30;99.90;;;;;;5026160;28;20041;-67
2022/05/10 04:11:10;;;;;;;19.13;14.75;;;14.30;99.90;;;;;;5037295;28;20490;-66
2022/05/10 04:13:37;;;;;;;24.00;14.30;;;14.30;99.90;;;;;;5037552;28;20107;-67
2022/05/10 04:16:03;;;;;;;20.48;14.35;;;14.30;99.90;;;;;;5037615;28;20050;-66
2022/05/10 04:18:28;;;;;;;24.13;14.13;;;14.30;99.90;;;;;;5022018;28;20049;-67
2022/05/10 04:20:54;;;;;;;22.33;15.20;;;14.30;99.90;;;;;;5017847;28;20096;-67
2022/05/10 04:23:20;;;;;;;23.35;14.63;;;14.30;99.90;;;;;;5033699;28;20041;-67
2022/05/10 04:25:46;;;;;;;20.38;14.10;;;14.30;99.90;;;;;;5037589;28;20068;-67
2022/05/10 04:28:11;;;;;;;20.55;14.10;;;14.40;99.90;;;;;;5037345;28;20463;-67
2022/05/10 04:30:37;;;;;;;20.85;14.77;;;14.40;99.90;;;;;;5030311;28;20341;-67
2022/05/10 04:33:03;;;;;;;21.23;15.07;;;14.30;99.90;;;;;;5017222;28;20053;-66
2022/05/10 04:35:28;;;;;;;22.48;13.98;;;14.40;99.90;;;;;;5017100;28;20042;-67
2022/05/10 04:37:54;;;;;;;21.40;14.32;;;14.40;99.90;;;;;;5017361;28;20092;-66
2022/05/10 04:43:05;;;;;;;23.67;14.85;;;14.50;99.90;;;;;;5037194;28;20069;-67
2022/05/10 04:45:33;;;;;;;18.17;14.05;;;14.50;99.90;;;;;;5024717;28;20376;-66
2022/05/10 04:48:00;;;;;;;25.02;14.63;;;14.50;99.90;;;;;;5016969;28;20069;-67
2022/05/10 04:50:26;;;;;;;19.42;14.77;;;14.50;99.90;;;;;;5028756;28;20082;-66
2022/05/10 04:52:51;;;;;;;19.67;15.80;;;14.50;99.90;;;;;;5016627;28;20092;-66
2022/05/10 04:55:20;;;;;;;21.52;14.45;;;14.50;99.90;;;;;;5017052;28;20045;-66
2022/05/10 04:57:45;;;;;;;24.40;14.30;;;14.60;99.90;;;;;;5017268;28;20129;-67
2022/05/10 05:00:13;;;;;;;23.08;14.52;;;14.60;99.90;;;;;;5016009;28;20054;-67
2022/05/10 05:02:39;;;;;;;20.73;14.13;;;14.60;99.90;;;;;;5016617;28;20073;-67
2022/05/10 05:05:06;;;;;;;23.92;14.63;;;14.60;99.90;;;;;;5016079;28;20139;-67
2022/05/10 05:07:32;;;;;;;20.15;14.23;;;14.60;99.90;;;;;;5016858;28;20060;-66
2022/05/10 05:09:58;;;;;;;22.65;13.02;;;14.60;99.90;;;;;;5015778;28;20042;-66
2022/05/10 05:12:24;;;;;;;23.23;13.63;;;14.60;99.90;;;;;;5013837;28;20056;-66
2022/05/10 05:14:49;;;;;;;22.35;14.25;;;14.70;99.90;;;;;;4999437;28;20069;-67
2022/05/10 05:17:16;;;;;;;24.98;13.02;;;14.70;99.90;;;;;;5016785;28;20046;-67
2022/05/10 05:19:41;;;;;;;21.23;13.38;;;14.80;99.90;;;;;;5015952;28;20156;-67
2022/05/10 05:22:07;;;;;;;18.83;12.98;;;14.80;99.90;;;;;;5016789;28;20544;-67
2022/05/10 05:24:32;;;;;;;17.52;13.07;;;14.80;99.90;;;;;;4999480;28;20050;-65
2022/05/10 05:26:58;;;;;;;20.00;12.15;;;14.80;99.90;;;;;;5016342;28;20077;-66
2022/05/10 05:29:23;;;;;;;20.05;12.50;;;14.80;99.90;;;;;;5016016;28;20084;-66
2022/05/10 05:31:51;;;;;;;24.40;12.27;;;14.90;99.90;;;;;;4998140;28;20479;-66
2022/05/10 05:34:17;;;;;;;19.92;12.38;;;14.90;99.90;;;;;;5016308;28;20042;-66
2022/05/10 05:36:44;;;;;;;20.67;11.68;;;15.00;99.90;;;;;;5014298;28;20056;-67
2022/05/10 05:39:09;;;;;;;19.60;12.02;;;15.00;99.90;;;;;;5016303;28;20046;-70
2022/05/10 05:41:35;;;;;;;16.58;11.23;;;15.10;99.90;;;;;;5016351;28;20128;-70
2022/05/10 05:44:00;;;;;;;17.83;11.85;;;15.20;99.90;;;;;;5016443;28;20113;-66
2022/05/10 05:46:26;;;;;;;17.83;11.88;;;15.20;99.90;;;;;;5015059;28;20121;-67
2022/05/10 05:48:52;;;;;;;18.10;11.63;;;15.20;99.90;;;;;;5015124;28;20132;-66
2022/05/10 05:51:17;;;;;;;14.25;11.68;;;15.30;99.90;;;;;;5015044;28;20103;-66
2022/05/10 05:53:43;;;;;;;21.75;13.30;;;15.40;99.90;;;;;;5012868;28;20085;-67
2022/05/10 05:56:10;;;;;;;20.00;12.15;;;15.40;99.90;;;;;;5015889;28;20062;-66
2022/05/10 05:58:39;;;;;;;19.10;11.55;;;15.40;99.90;;;;;;5015971;28;20049;-66
2022/05/10 06:01:16;;;;;;;16.25;12.20;;;15.50;99.90;;;;;;5014497;28;20065;-67
2022/05/10 06:03:42;;;;;;;18.75;11.77;;;15.50;99.90;;;;;;5015561;28;20054;-66
2022/05/10 06:06:09;;;;;;;14.48;10.93;;;15.50;99.90;;;;;;5015545;28;20049;-66
2022/05/10 06:08:34;;;;;;;16.50;12.07;;;15.60;99.90;;;;;;5015770;28;20053;-66
2022/05/10 06:11:00;;;;;;;18.27;11.88;;;15.70;99.90;;;;;;5014954;28;20479;-67
2022/05/10 06:13:27;;;;;;;15.05;11.45;;;15.70;99.90;;;;;;5015725;28;20486;-66
2022/05/10 06:15:52;;;;;;;18.92;13.43;;;15.70;99.90;;;;;;5015234;28;20049;-66
2022/05/10 06:18:18;;;;;;;19.23;12.65;;;15.70;99.90;;;;;;5015362;28;20056;-66
2022/05/10 06:20:43;;;;;;;18.25;11.63;;;15.80;99.90;;;;;;5011498;28;20068;-66
2022/05/10 06:23:09;;;;;;;18.13;12.82;;;15.80;99.90;;;;;;5015085;28;20056;-66
2022/05/10 06:25:36;;;;;;;19.75;12.10;;;15.80;99.90;;;;;;5015292;28;20050;-66
2022/05/10 06:28:02;;;;;;;17.45;12.13;;;15.90;99.90;;;;;;5015273;28;20121;-67
2022/05/10 06:30:29;;;;;;;20.63;13.00;;;15.90;99.90;;;;;;5014512;28;20045;-66
2022/05/10 06:32:57;;;;;;;19.95;12.10;;;15.90;99.90;;;;;;5015448;28;20136;-66
2022/05/10 06:35:22;;;;;;;17.98;12.73;;;15.90;99.90;;;;;;5015273;28;20528;-67
2022/05/10 06:40:32;;;;;;;15.95;11.70;;;16.00;99.90;;;;;;5014251;28;20046;-67
2022/05/10 06:42:59;;;;;;;19.02;11.90;;;16.00;99.90;;;;;;5015174;28;20056;-66
2022/05/10 06:45:25;;;;;;;19.42;11.68;;;16.00;99.90;;;;;;5014942;28;20054;-66
2022/05/10 06:47:51;;;;;;;17.15;11.00;;;16.10;99.90;;;;;;5015215;28;20050;-66
2022/05/10 06:50:20;;;;;;;13.00;11.18;;;16.10;99.90;;;;;;5019609;28;20432;-66
2022/05/10 06:52:48;;;;;;;18.98;12.38;;;16.10;99.90;;;;;;5033474;28;20398;-66
2022/05/10 06:55:14;;;;;;;18.42;12.25;;;16.10;99.90;;;;;;5034679;28;20509;-66
2022/05/10 06:57:40;;;;;;;20.60;12.75;;;16.20;99.90;;;;;;5034761;28;20427;-66
2022/05/10 07:00:08;;;;;;;17.83;12.70;;;16.10;99.90;;;;;;5025229;28;20085;-66
2022/05/10 07:02:34;;;;;;;20.90;13.02;;;16.10;99.90;;;;;;5014899;28;20049;-66
2022/05/10 07:05:00;;;;;;;18.75;12.60;;;16.10;99.90;;;;;;5015115;28;20085;-66
2022/05/10 07:07:25;;;;;;;21.40;12.57;;;16.10;99.90;;;;;;5014925;28;20148;-66
2022/05/10 07:09:52;;;;;;;16.73;12.68;;;16.00;99.90;;;;;;5014121;28;20161;-67
2022/05/10 07:12:18;;;;;;;19.15;13.02;;;16.10;99.90;;;;;;5031786;28;20056;-66
2022/05/10 07:14:45;;;;;;;23.33;12.70;;;16.10;99.90;;;;;;5034262;28;20041;-66
2022/05/10 07:17:12;;;;;;;20.60;13.02;;;16.10;99.90;;;;;;5027598;28;20371;-66
2022/05/10 07:19:37;;;;;;;15.75;12.60;;;16.10;99.90;;;;;;5001511;28;20128;-66
2022/05/10 07:22:03;;;;;;;17.63;11.77;;;16.00;99.90;;;;;;5018952;28;20133;-66
2022/05/10 07:24:29;;;;;;;17.98;12.73;;;16.10;99.90;;;;;;5018217;28;20041;-66
2022/05/10 07:26:55;;;;;;;15.00;10.73;;;16.20;99.90;;;;;;5018009;28;20041;-66
2022/05/10 07:29:22;;;;;;;18.23;11.65;;;16.30;99.90;;;;;;5029006;28;20088;-64
2022/05/10 07:31:48;;;;;;;19.80;12.25;;;16.50;99.90;;;;;;5035431;28;20046;-67
2022/05/10 07:34:13;;;;;;;16.33;11.20;;;16.50;99.90;;;;;;5038543;28;20115;-67
2022/05/10 07:36:39;;;;;;;20.95;11.93;;;16.60;99.90;;;;;;5036515;28;20042;-66
2022/05/10 07:39:11;;;;;;;17.38;11.20;;;16.70;99.90;;;;;;5037619;28;20128;-67
2022/05/10 07:41:38;;;;;;;18.63;12.50;;;16.80;99.90;;;;;;4998784;28;20455;-67
2022/05/10 07:44:05;;;;;;;17.10;11.75;;;16.90;99.90;;;;;;4998930;28;20042;-66
2022/05/10 07:46:31;;;;;;;17.65;11.30;;;17.00;99.90;;;;;;5003268;28;20470;-67
2022/05/10 07:48:56;;;;;;;15.40;11.70;;;17.00;99.90;;;;;;5036028;28;20136;-67
2022/05/10 07:51:22;;;;;;;16.83;12.30;;;17.10;99.90;;;;;;5035141;28;20049;-64
2022/05/10 07:53:48;;;;;;;23.58;12.38;;;17.20;99.90;;;;;;5038046;28;20053;-64
2022/05/10 07:56:14;;;;;;;16.70;11.80;;;17.20;99.90;;;;;;5036006;28;20053;-65
2022/05/10 07:58:39;;;;;;;16.17;12.02;;;17.30;99.90;;;;;;5029605;28;20061;-64
2022/05/10 08:01:07;;;;;;;20.45;11.30;;;17.40;99.90;;;;;;5037750;28;20052;-64
2022/05/10 08:03:32;;;;;;;16.00;10.57;;;17.50;99.90;;;;;;5037693;28;20068;-64
2022/05/10 08:06:01;;;;;;;17.73;11.63;;;17.60;99.90;;;;;;5037602;28;20455;-64
2022/05/10 08:08:29;;;;;;;18.23;11.18;;;17.70;99.90;;;;;;5035180;28;20050;-66
2022/05/10 08:10:55;;;;;;;17.42;10.65;;;17.80;99.90;;;;;;5037625;28;20049;-69
2022/05/10 08:13:24;;;;;;;21.75;10.75;;;17.90;99.90;;;;;;5037564;28;20418;-68
2022/05/10 08:15:51;;;;;;;14.90;11.27;;;18.00;99.90;;;;;;5034126;28;20057;-67
2022/05/10 08:18:18;;;;;;;14.75;10.43;;;18.10;99.90;;;;;;5037880;28;20068;-67
2022/05/10 08:20:44;;;;;;;18.80;9.98;;;18.20;99.90;;;;;;5037316;28;20046;-66
2022/05/10 08:23:14;;;;;;;15.23;9.93;;;18.30;99.90;;;;;;5037314;28;20060;-67
2022/05/10 08:25:40;;;;;;;21.23;10.07;;;18.30;99.90;;;;;;5035752;28;20037;-67
2022/05/10 08:28:10;;;;;;;17.27;10.50;;;18.40;99.90;;;;;;5017028;28;20057;-65
2022/05/10 08:30:35;;;;;;;16.20;11.30;;;18.50;99.90;;;;;;5017435;28;20046;-64
2022/05/10 08:33:01;;;;;;;17.98;10.43;;;18.60;99.90;;;;;;5017475;28;20453;-64
2022/05/10 08:35:26;;;;;;;16.23;9.93;;;18.70;99.90;;;;;;5017090;28;20042;-65
2022/05/10 08:37:52;;;;;;;19.58;9.60;;;18.90;99.90;;;;;;5032854;28;20052;-65
2022/05/10 08:40:35;;;;;;;17.88;9.15;;;19.10;99.90;;;;;;5036940;28;20107;-66
2022/05/10 08:43:05;;;;;;;12.90;8.80;;;19.30;99.90;;;;;;5037152;28;20038;-67
2022/05/10 08:45:37;;;;;;;17.23;8.73;;;19.30;99.90;;;;;;5036779;28;20383;-66
2022/05/10 08:48:03;;;;;;;13.27;8.68;;;19.40;99.90;;;;;;5028456;28;20050;-64
2022/05/10 08:50:28;;;;;;;12.60;8.60;;;19.50;99.90;;;;;;4997514;28;20123;-64
2022/05/10 08:52:54;;;;;;;17.17;9.40;;;19.50;99.90;;;;;;4997391;28;20137;-68
2022/05/10 08:55:25;;;;;;;15.13;8.77;;;19.50;99.90;;;;;;4997342;28;20050;-67
2022/05/10 08:57:53;;;;;;;16.92;8.05;;;19.50;99.90;;;;;;5012748;28;20460;-67
2022/05/10 09:00:44;;;;;;;19.10;9.00;;;19.50;99.90;;;;;;5016888;28;20116;-65
2022/05/10 09:03:26;;;;;;;17.30;8.48;;;19.50;99.90;;;;;;5000009;28;20053;-63
2022/05/10 09:06:01;;;;;;;18.92;8.30;;;19.60;99.90;;;;;;5017014;28;20056;-63
2022/05/10 09:08:47;;;;;;;17.20;8.27;;;19.50;99.90;;;;;;4997136;28;20144;-64
2022/05/10 09:11:15;;;;;;;14.68;9.85;;;19.50;99.90;;;;;;4996842;28;20453;-62
2022/05/10 09:13:42;;;;;;;18.15;9.70;;;19.60;99.90;;;;;;4997076;28;20049;-63
2022/05/10 09:16:12;;;;;;;17.15;9.93;;;19.60;99.90;;;;;;4997986;28;20137;-62
2022/05/10 09:18:51;;;;;;;23.00;10.48;;;19.70;99.90;;;;;;5016618;28;20037;-67
2022/05/10 09:21:24;;;;;;;14.75;9.23;;;19.80;99.90;;;;;;5000069;28;20053;-66
2022/05/10 09:24:28;;;;;;;21.88;10.43;;;19.80;99.90;;;;;;5016313;28;20060;-69
2022/05/10 09:27:00;;;;;;;18.33;9.77;;;19.80;99.90;;;;;;4979400;28;20058;-67
2022/05/10 09:29:35;;;;;;;16.73;10.48;;;19.90;99.90;;;;;;4996974;28;20054;-68
2022/05/10 09:35:21;;;;;;;18.63;11.18;;;19.80;99.90;;;;;;5010310;28;20452;-69
2022/05/10 09:38:03;;;;;;;16.40;10.63;;;19.80;99.90;;;;;;5035700;28;20042;-67
2022/05/10 09:40:35;;;;;;;15.13;11.07;;;19.90;99.90;;;;;;5018702;28;20050;-70
2022/05/10 09:43:17;;;;;;;13.90;11.35;;;19.80;99.90;;;;;;5035648;28;20383;-69
2022/05/10 09:45:43;;;;;;;19.08;11.30;;;19.80;99.90;;;;;;5033124;28;20116;-71
2022/05/10 09:48:09;;;;;;;14.95;10.30;;;19.80;99.90;;;;;;5018596;28;20045;-70
2022/05/10 09:50:39;;;;;;;18.15;11.63;;;19.80;99.90;;;;;;5035575;28;20435;-71
2022/05/10 09:53:27;;;;;;;16.23;11.05;;;19.90;99.90;;;;;;5035854;28;20100;-68
2022/05/10 09:56:03;;;;;;;17.30;11.55;;;19.80;99.90;;;;;;5034296;28;20055;-69
2022/05/10 09:58:37;;;;;;;21.92;11.60;;;19.80;99.90;;;;;;5035541;28;20041;-71
2022/05/10 10:01:06;;;;;;;18.80;11.70;;;19.70;99.90;;;;;;5035436;28;20089;-67
2022/05/10 10:03:37;;;;;;;18.75;10.85;;;19.70;99.90;;;;;;5035578;28;20099;-69
2022/05/10 10:06:19;;;;;;;19.05;12.15;;;19.70;99.90;;;;;;5021741;28;20034;-67
2022/05/10 10:08:47;;;;;;;15.55;11.10;;;19.70;99.90;;;;;;5016048;28;20049;-68
2022/05/10 10:11:26;;;;;;;16.90;10.90;;;19.60;99.90;;;;;;5015997;28;20049;-67
2022/05/10 10:13:58;;;;;;;14.90;11.32;;;19.60;99.90;;;;;;5016011;28;20046;-68
2022/05/10 10:16:31;;;;;;;15.77;11.20;;;19.70;99.90;;;;;;5014525;28;20060;-73
2022/05/10 10:19:01;;;;;;;17.58;13.10;;;19.60;99.90;;;;;;5015840;28;20060;-73
2022/05/10 10:21:51;;;;;;;18.75;12.68;;;19.60;99.90;;;;;;5015780;28;20061;-70
2022/05/10 10:24:50;;;;;;;16.63;11.00;;;19.60;99.90;;;;;;5015601;28;20100;-70
2022/05/10 10:27:26;;;;;;;20.85;12.10;;;19.60;99.90;;;;;;4987757;28;20046;-68
2022/05/10 10:30:06;;;;;;;18.90;11.48;;;19.60;99.90;;;;;;4995642;28;20097;-70
2022/05/10 10:32:39;;;;;;;15.52;10.18;;;19.60;99.90;;;;;;4995893;28;20440;-68
2022/05/10 10:35:18;;;;;;;14.30;9.73;;;19.60;99.90;;;;;;5001829;28;20048;-70
2022/05/10 10:38:14;;;;;;;16.77;10.52;;;19.70;99.90;;;;;;4997750;28;20056;-71
2022/05/10 10:41:02;;;;;;;12.05;9.05;;;19.70;99.90;;;;;;5018529;28;20061;-72
2022/05/10 10:43:33;;;;;;;15.48;7.93;;;19.70;99.90;;;;;;5034800;28;20050;-69
2022/05/10 10:46:31;;;;;;;17.55;9.27;;;19.70;99.90;;;;;;5019715;28;20046;-69
2022/05/10 10:49:05;;;;;;;21.00;8.73;;;19.70;99.90;;;;;;5014928;28;20053;-70
2022/05/10 10:51:33;;;;;;;15.73;8.50;;;19.80;99.90;;;;;;4996706;28;20041;-73
2022/05/10 10:54:00;;;;;;;19.77;7.32;;;19.80;99.90;;;;;;5015118;28;20080;-71
2022/05/10 10:56:46;;;;;;;13.23;8.55;;;19.90;99.90;;;;;;5014937;28;20050;-70
2022/05/10 10:59:24;;;;;;;15.98;7.30;;;19.80;99.90;;;;;;5014942;28;20373;-69
2022/05/10 11:02:31;;;;;;;15.25;7.05;;;19.70;99.90;;;;;;4997288;28;20097;-67
2022/05/10 11:05:09;;;;;;;12.52;6.63;;;19.70;99.90;;;;;;5014406;28;20058;-69
2022/05/10 11:08:12;;;;;;;13.95;6.68;;;19.70;99.90;;;;;;5014852;28;20089;-70
2022/05/10 11:11:06;;;;;;;10.18;6.50;;;19.80;99.90;;;;;;5014375;28;20115;-69
2022/05/10 11:13:43;;;;;;;11.07;6.43;;;19.70;99.90;;;;;;4995320;28;20051;-68
2022/05/10 11:16:33;;;;;;;14.48;7.22;;;19.70;99.90;;;;;;4994946;28;20038;-68
2022/05/10 11:19:31;;;;;;;10.82;7.18;;;19.70;99.90;;;;;;4995325;28;20061;-71
2022/05/10 11:21:59;;;;;;;15.85;5.95;;;19.70;99.90;;;;;;5002736;28;20045;-70
2022/05/10 11:24:43;;;;;;;11.20;6.30;;;19.70;99.90;;;;;;4995078;28;20140;-71
2022/05/10 11:27:30;;;;;;;14.10;7.00;;;19.70;99.90;;;;;;4990182;28;20085;-70
2022/05/10 11:30:15;;;;;;;17.38;7.38;;;19.70;99.90;;;;;;5014466;28;20077;-72
2022/05/10 11:32:57;;;;;;;18.75;6.05;;;19.70;99.90;;;;;;5013974;28;20050;-67
2022/05/10 11:35:38;;;;;;;14.85;6.20;;;19.70;99.90;;;;;;5014293;28;20464;-67
2022/05/10 11:38:17;;;;;;;10.13;6.13;;;19.90;99.90;;;;;;5014749;28;20046;-68
2022/05/10 11:41:14;;;;;;;11.15;6.13;;;19.90;99.90;;;;;;5014042;28;20129;-70
2022/05/10 11:44:05;;;;;;;12.25;4.75;;;19.90;99.90;;;;;;5005035;28;20395;-69
2022/05/10 11:47:08;;;;;;;7.10;4.25;;;19.90;99.90;;;;;;5034550;28;20056;-70
2022/05/10 11:49:55;;;;;;;7.68;4.28;;;19.90;99.90;;;;;;5034079;28;20068;-67
2022/05/10 11:53:06;;;;;;;10.25;4.53;;;19.90;99.90;;;;;;5019687;28;20485;-67
2022/05/10 11:55:50;;;;;;;6.70;3.60;;;20.10;99.90;;;;;;5014392;28;20038;-71
2022/05/10 11:58:16;;;;;;;8.98;4.13;;;20.20;99.90;;;;;;5014376;28;20046;-70
2022/05/10 12:00:54;;;;;;;8.30;3.78;;;20.30;99.90;;;;;;5014517;28;20124;-70
2022/05/10 12:03:39;;;;;;;9.85;4.40;;;20.00;99.90;;;;;;5017841;28;20050;-70
2022/05/10 12:06:33;;;;;;;12.57;4.00;;;19.90;99.90;;;;;;5017709;28;20054;-69
2022/05/10 12:09:00;;;;;;;10.77;4.78;;;19.80;99.90;;;;;;5018018;28;20395;-68
2022/05/10 12:11:32;;;;;;;10.57;3.97;;;19.60;99.90;;;;;;5017174;28;20056;-70
2022/05/10 12:22:45;;;;;;;13.27;4.10;;;19.20;99.90;;;;;;5025281;28;20081;-68
2022/05/10 12:25:50;;;;;;;16.58;6.05;;;19.10;99.90;;;;;;5016926;28;20442;-69
2022/05/10 12:28:45;;;;;;;12.05;6.00;;;18.80;99.90;;;;;;5017520;28;20050;-70
2022/05/10 12:31:31;;;;;;;14.52;6.88;;;18.50;99.90;;;;;;5016814;28;20566;-69
2022/05/10 12:34:08;;;;;;;9.95;5.60;;;18.40;99.90;;;;;;5006901;28;20050;-70
2022/05/10 12:36:41;;;;;;;13.18;5.85;;;18.30;99.90;;;;;;5017475;28;20048;-71
2022/05/10 12:39:24;;;;;;;14.38;5.43;;;18.30;99.90;;;;;;5017668;28;20045;-70
2022/05/10 12:42:00;;;;;;;12.63;6.53;;;18.10;99.90;;;;;;5023442;28;20120;-66
2022/05/10 12:45:22;;;;;;;12.20;5.05;;;18.00;99.90;;;;;;5036990;28;20095;-69
2022/05/10 12:48:07;;;;;;;14.25;6.22;;;17.90;99.90;;;;;;4956470;29;20050;-72
2022/05/10 12:50:59;;;;;;;11.77;5.10;;;17.80;99.90;;;;;;4956406;28;20075;-68
2022/05/10 12:53:42;;;;;;;15.38;5.72;;;17.70;99.90;;;;;;5028231;28;20057;-69
2022/05/10 12:56:25;;;;;;;10.23;4.90;;;17.70;99.90;;;;;;5036443;28;20085;-70
2022/05/10 12:59:07;;;;;;;12.82;5.22;;;17.70;99.90;;;;;;5019474;28;20045;-71
2022/05/10 13:01:35;;;;;;;13.27;5.75;;;17.80;99.90;;;;;;5017105;28;20054;-68
2022/05/10 13:04:12;;;;;;;11.88;6.05;;;17.70;99.90;;;;;;5017144;28;20061;-72
2022/05/10 13:06:59;;;;;;;12.93;5.35;;;17.80;99.90;;;;;;5016638;28;20041;-70
2022/05/10 13:09:30;;;;;;;9.18;5.03;;;17.80;99.90;;;;;;5016008;28;20072;-71
2022/05/10 13:12:06;;;;;;;12.65;5.50;;;17.80;99.90;;;;;;5019443;28;20103;-68
2022/05/10 13:14:36;;;;;;;10.30;5.93;;;17.70;99.90;;;;;;5035254;28;20049;-69
2022/05/10 13:17:03;;;;;;;11.02;5.50;;;17.60;99.90;;;;;;5036225;28;20046;-70
2022/05/10 13:19:29;;;;;;;13.30;5.30;;;17.50;99.90;;;;;;5036582;28;20129;-69
2022/05/10 13:21:56;;;;;;;14.50;6.05;;;17.40;99.90;;;;;;5034640;28;20046;-69